createdAt,value
2018-03-03T00:00:39.233Z,33.1
2018-03-03T00:01:29.239Z,33.5
2018-03-03T00:02:18.339Z,32.8
2018-03-03T00:03:08.807Z,32.4
2018-03-03T00:03:58.080Z,32.3
2018-03-03T00:04:50.067Z,32.1
2018-03-03T00:05:39.893Z,31.9
2018-03-03T00:06:28.709Z,31.8
2018-03-03T00:07:18.799Z,31.7
2018-03-03T00:08:09.869Z,31.6
2018-03-03T00:08:59.517Z,31.5
2018-03-03T00:09:49.142Z,31.4
2018-03-03T00:10:39.162Z,31.3
2018-03-03T00:11:29.199Z,31.1
2018-03-03T00:12:19.134Z,30.3
2018-03-03T00:13:08.738Z,29.7
2018-03-03T00:13:59.359Z,29.3
2018-03-03T00:14:50.012Z,29
2018-03-03T00:15:40.429Z,28.9
2018-03-03T00:16:29.369Z,28.7
2018-03-03T00:17:19.564Z,28.2
2018-03-03T00:18:10.965Z,29
2018-03-03T00:18:59.532Z,29.9
2018-03-03T00:19:49.872Z,30.6
2018-03-03T00:20:40.369Z,31.4
2018-03-03T00:21:29.468Z,32.1
2018-03-03T00:22:19.439Z,32.8
2018-03-03T00:23:09.164Z,33.5
2018-03-03T00:24:01.434Z,33.1
2018-03-03T00:24:49.718Z,32.6
2018-03-03T00:25:41.358Z,32.3
2018-03-03T00:26:29.896Z,32.1
2018-03-03T00:27:20.409Z,32
2018-03-03T00:28:10.283Z,31.9
2018-03-03T00:29:00.113Z,31.8
2018-03-03T00:29:50.098Z,31.7
2018-03-03T00:30:40.310Z,31.6
2018-03-03T00:31:30.225Z,31.4
2018-03-03T00:32:19.576Z,31.4
2018-03-03T00:33:09.840Z,31.2
2018-03-03T00:34:01.008Z,30.4
2018-03-03T00:34:50.578Z,29.8
2018-03-03T00:35:40.342Z,29.4
2018-03-03T00:36:31.278Z,29.1
2018-03-03T00:37:21.487Z,28.9
2018-03-03T00:38:10.379Z,28.8
2018-03-03T00:39:01.626Z,28.3
2018-03-03T00:39:50.125Z,29
2018-03-03T00:40:39.990Z,29.8
2018-03-03T00:41:31.525Z,30.6
2018-03-03T00:42:21.105Z,31.3
2018-03-03T00:43:10.132Z,32
2018-03-03T00:44:00.995Z,32.7
2018-03-03T00:44:52.325Z,33.4
2018-03-03T00:45:42.123Z,33.3
2018-03-03T00:46:31.710Z,32.7
2018-03-03T00:47:22.725Z,32.3
2018-03-03T00:48:13.692Z,32.1
2018-03-03T00:49:01.671Z,32
2018-03-03T00:49:52.724Z,31.9
2018-03-03T00:50:42.859Z,31.8
2018-03-03T00:51:31.519Z,31.6
2018-03-03T00:52:22.055Z,31.6
2018-03-03T00:53:12.077Z,31.4
2018-03-03T00:54:02.517Z,31.3
2018-03-03T00:54:51.889Z,31.2
2018-03-03T00:55:42.665Z,30.5
2018-03-03T00:56:33.074Z,29.8
2018-03-03T00:57:21.694Z,29.4
2018-03-03T00:58:13.294Z,29.1
2018-03-03T00:59:02.807Z,28.9
2018-03-03T00:59:53.065Z,28.7
2018-03-03T01:00:43.154Z,28.3
2018-03-03T01:01:32.629Z,29
2018-03-03T01:02:23.111Z,29.9
2018-03-03T01:03:13.190Z,30.7
2018-03-03T01:04:03.113Z,31.4
2018-03-03T01:04:53.257Z,32.2
2018-03-03T01:05:44.311Z,32.9
2018-03-03T01:06:33.836Z,33.6
2018-03-03T01:07:23.478Z,32.9
2018-03-03T01:08:13.637Z,32.6
2018-03-03T01:09:03.633Z,32.3
2018-03-03T01:09:54.249Z,32.1
2018-03-03T01:10:43.710Z,32
2018-03-03T01:11:34.852Z,31.9
2018-03-03T01:12:23.996Z,31.8
2018-03-03T01:13:13.243Z,31.7
2018-03-03T01:14:03.578Z,31.6
2018-03-03T01:14:54.599Z,31.4
2018-03-03T01:15:44.153Z,31.3
2018-03-03T01:16:34.156Z,30.6
2018-03-03T01:17:24.199Z,29.9
2018-03-03T01:18:13.753Z,29.5
2018-03-03T01:19:04.528Z,29.2
2018-03-03T01:19:54.730Z,29
2018-03-03T01:20:44.881Z,28.8
2018-03-03T01:21:34.520Z,28.4
2018-03-03T01:22:23.428Z,29
2018-03-03T01:23:13.520Z,29.9
2018-03-03T01:24:03.792Z,30.7
2018-03-03T01:24:52.953Z,31.5
2018-03-03T01:25:44.257Z,32.3
2018-03-03T01:26:34.380Z,33
2018-03-03T01:27:25.044Z,33.6
2018-03-03T01:28:14.258Z,32.9
2018-03-03T01:29:05.194Z,32.5
2018-03-03T01:29:54.664Z,32.3
2018-03-03T01:30:45.340Z,32.1
2018-03-03T01:31:35.605Z,32
2018-03-03T01:32:24.714Z,31.8
2018-03-03T01:33:13.818Z,31.7
2018-03-03T01:34:05.227Z,31.6
2018-03-03T01:34:55.577Z,31.4
2018-03-03T01:35:44.734Z,31.4
2018-03-03T01:36:36.414Z,31.3
2018-03-03T01:37:24.036Z,31.1
2018-03-03T01:38:14.403Z,30.4
2018-03-03T01:39:06.159Z,29.7
2018-03-03T01:39:56.015Z,29.2
2018-03-03T01:40:44.914Z,28.9
2018-03-03T01:41:36.137Z,28.6
2018-03-03T01:42:26.192Z,28.3
2018-03-03T01:43:14.942Z,29.2
2018-03-03T01:44:05.436Z,30.1
2018-03-03T01:44:55.060Z,30.9
2018-03-03T01:45:46.190Z,31.8
2018-03-03T01:46:36.382Z,32.6
2018-03-03T01:47:26.768Z,33.4
2018-03-03T01:48:16.888Z,33.3
2018-03-03T01:49:06.431Z,32.8
2018-03-03T01:49:56.841Z,32.5
2018-03-03T01:50:46.345Z,32.3
2018-03-03T01:51:35.819Z,32.2
2018-03-03T01:52:26.550Z,32.1
2018-03-03T01:53:16.324Z,31.9
2018-03-03T01:54:05.954Z,31.8
2018-03-03T01:54:57.486Z,31.7
2018-03-03T01:55:46.741Z,31.6
2018-03-03T01:56:36.341Z,31.4
2018-03-03T01:57:26.196Z,31.3
2018-03-03T01:58:16.511Z,30.4
2018-03-03T01:59:07.283Z,29.8
2018-03-03T01:59:57.054Z,29.4
2018-03-03T02:00:47.670Z,29.1
2018-03-03T02:01:37.345Z,28.9
2018-03-03T02:02:26.443Z,28.5
2018-03-03T02:03:16.491Z,28.8
2018-03-03T02:04:07.473Z,29.8
2018-03-03T02:04:57.688Z,30.7
2018-03-03T02:05:47.773Z,31.5
2018-03-03T02:06:37.451Z,32.4
2018-03-03T02:07:27.773Z,33.1
2018-03-03T02:08:17.911Z,33.8
2018-03-03T02:09:07.351Z,33.1
2018-03-03T02:09:57.450Z,32.7
2018-03-03T02:10:48.264Z,32.4
2018-03-03T02:11:37.429Z,32.3
2018-03-03T02:12:28.395Z,32.2
2018-03-03T02:13:16.791Z,32.1
2018-03-03T02:14:08.420Z,31.9
2018-03-03T02:14:59.055Z,31.8
2018-03-03T02:15:47.871Z,31.7
2018-03-03T02:16:38.665Z,31.6
2018-03-03T02:17:28.543Z,31.4
2018-03-03T02:18:17.760Z,31.3
2018-03-03T02:19:08.935Z,31.2
2018-03-03T02:19:57.231Z,30.8
2018-03-03T02:20:48.602Z,30.3
2018-03-03T02:21:39.063Z,30.8
2018-03-03T02:22:27.908Z,31.6
2018-03-03T02:23:18.011Z,32.3
2018-03-03T02:24:08.140Z,32.9
2018-03-03T02:24:58.207Z,33.8
2018-03-03T02:25:48.869Z,33.5
2018-03-03T02:26:38.916Z,33
2018-03-03T02:27:29.392Z,32.8
2018-03-03T02:28:19.392Z,32.6
2018-03-03T02:29:08.816Z,32.4
2018-03-03T02:29:58.886Z,32.3
2018-03-03T02:30:48.835Z,32.2
2018-03-03T02:31:38.737Z,32.1
2018-03-03T02:32:29.174Z,31.9
2018-03-03T02:33:18.986Z,31.8
2018-03-03T02:34:10.761Z,31.7
2018-03-03T02:35:00.750Z,31.6
2018-03-03T02:35:51.079Z,31.5
2018-03-03T02:36:40.552Z,31.4
2018-03-03T02:37:30.680Z,31.3
2018-03-03T02:38:20.695Z,31.1
2018-03-03T02:39:11.012Z,30.9
2018-03-03T02:40:00.483Z,30.3
2018-03-03T02:40:50.555Z,30.6
2018-03-03T02:41:40.988Z,31.3
2018-03-03T02:42:31.254Z,31.9
2018-03-03T02:43:21.013Z,32.5
2018-03-03T02:44:11.369Z,33.2
2018-03-03T02:45:01.671Z,33.9
2018-03-03T02:45:51.389Z,33.4
2018-03-03T02:46:40.977Z,32.9
2018-03-03T02:47:31.013Z,32.6
2018-03-03T02:48:21.172Z,32.4
2018-03-03T02:49:10.911Z,32.3
2018-03-03T02:50:00.964Z,32.2
2018-03-03T02:50:50.030Z,32
2018-03-03T02:51:40.723Z,31.9
2018-03-03T02:52:31.193Z,31.8
2018-03-03T02:53:19.740Z,31.6
2018-03-03T02:54:10.732Z,31.5
2018-03-03T02:55:00.080Z,31.1
2018-03-03T02:55:51.142Z,30.1
2018-03-03T02:56:40.684Z,29.6
2018-03-03T02:57:30.582Z,29.2
2018-03-03T02:58:20.663Z,28.9
2018-03-03T02:59:09.590Z,28.6
2018-03-03T03:00:00.208Z,28.7
2018-03-03T03:00:50.429Z,29.8
2018-03-03T03:01:41.020Z,30.6
2018-03-03T03:02:30.018Z,31.4
2018-03-03T03:03:20.673Z,32.1
2018-03-03T03:04:10.538Z,32.9
2018-03-03T03:05:02.377Z,33.7
2018-03-03T03:05:51.008Z,33
2018-03-03T03:06:41.568Z,32.6
2018-03-03T03:07:31.960Z,32.3
2018-03-03T03:08:22.001Z,32.1
2018-03-03T03:09:11.671Z,31.9
2018-03-03T03:10:01.002Z,31.8
2018-03-03T03:10:51.251Z,31.7
2018-03-03T03:11:41.402Z,31.6
2018-03-03T03:12:31.737Z,31.4
2018-03-03T03:13:21.136Z,31.4
2018-03-03T03:14:11.062Z,31.3
2018-03-03T03:15:01.567Z,31.1
2018-03-03T03:15:51.958Z,31
2018-03-03T03:16:40.677Z,30.3
2018-03-03T03:17:32.667Z,30.3
2018-03-03T03:18:22.262Z,31
2018-03-03T03:19:11.531Z,31.6
2018-03-03T03:20:03.122Z,32.3
2018-03-03T03:20:52.609Z,33
2018-03-03T03:21:42.207Z,33.8
2018-03-03T03:22:33.197Z,33.5
2018-03-03T03:23:22.560Z,32.9
2018-03-03T03:24:12.382Z,32.6
2018-03-03T03:25:03.020Z,32.4
2018-03-03T03:25:52.351Z,32.3
2018-03-03T03:26:42.775Z,32.1
2018-03-03T03:27:31.756Z,32
2018-03-03T03:28:22.858Z,31.9
2018-03-03T03:29:13.668Z,31.8
2018-03-03T03:30:02.466Z,31.6
2018-03-03T03:30:53.089Z,31.5
2018-03-03T03:31:43.468Z,31.4
2018-03-03T03:32:32.368Z,31.3
2018-03-03T03:33:22.761Z,30.8
2018-03-03T03:34:12.546Z,30.3
2018-03-03T03:35:03.639Z,30.9
2018-03-03T03:35:53.843Z,31.6
2018-03-03T03:36:42.108Z,32.3
2018-03-03T03:37:32.453Z,33.1
2018-03-03T03:38:22.969Z,33.8
2018-03-03T03:39:12.700Z,33.6
2018-03-03T03:40:02.605Z,33.1
2018-03-03T03:40:52.365Z,32.8
2018-03-03T03:41:44.665Z,32.6
2018-03-03T03:42:34.345Z,32.4
2018-03-03T03:43:23.024Z,32.3
2018-03-03T03:44:14.191Z,32.1
2018-03-03T03:45:04.575Z,32
2018-03-03T03:45:54.688Z,31.9
2018-03-03T03:46:43.193Z,31.8
2018-03-03T03:47:34.850Z,31.6
2018-03-03T03:48:24.628Z,31.5
2018-03-03T03:49:14.163Z,31.4
2018-03-03T03:50:04.343Z,31.3
2018-03-03T03:50:53.932Z,30.8
2018-03-03T03:51:44.103Z,30.4
2018-03-03T03:52:33.782Z,31
2018-03-03T03:53:24.122Z,31.7
2018-03-03T03:54:14.482Z,32.3
2018-03-03T03:55:04.716Z,33.1
2018-03-03T03:55:54.657Z,33.8
2018-03-03T03:56:45.344Z,33.6
2018-03-03T03:57:35.914Z,33.1
2018-03-03T03:58:26.306Z,32.8
2018-03-03T03:59:16.346Z,32.5
2018-03-03T04:00:05.846Z,32.4
2018-03-03T04:00:55.355Z,32.3
2018-03-03T04:01:46.814Z,32.1
2018-03-03T04:02:36.287Z,31.9
2018-03-03T04:03:25.482Z,31.8
2018-03-03T04:04:15.946Z,31.7
2018-03-03T04:05:06.253Z,31.6
2018-03-03T04:05:56.344Z,31.4
2018-03-03T04:06:45.721Z,31.3
2018-03-03T04:07:35.556Z,31
2018-03-03T04:08:26.268Z,30.3
2018-03-03T04:09:15.862Z,30.9
2018-03-03T04:10:05.257Z,31.6
2018-03-03T04:10:56.164Z,32.3
2018-03-03T04:11:46.385Z,32.9
2018-03-03T04:12:35.285Z,33.7
2018-03-03T04:13:25.023Z,33.8
2018-03-03T04:14:15.323Z,33.1
2018-03-03T04:15:05.592Z,32.8
2018-03-03T04:15:55.321Z,32.6
2018-03-03T04:16:45.861Z,32.4
2018-03-03T04:17:36.576Z,32.3
2018-03-03T04:18:26.465Z,32.1
2018-03-03T04:19:15.476Z,32
2018-03-03T04:20:05.447Z,31.9
2018-03-03T04:20:56.270Z,31.8
2018-03-03T04:21:46.322Z,31.6
2018-03-03T04:22:36.443Z,31.5
2018-03-03T04:23:26.901Z,31.4
2018-03-03T04:24:17.062Z,31.1
2018-03-03T04:25:06.907Z,30.4
2018-03-03T04:25:57.015Z,31.1
2018-03-03T04:26:47.302Z,31.6
2018-03-03T04:27:36.811Z,32.3
2018-03-03T04:28:25.873Z,32.9
2018-03-03T04:29:17.311Z,33.7
2018-03-03T04:30:07.071Z,33.6
2018-03-03T04:30:57.748Z,33
2018-03-03T04:31:47.464Z,32.7
2018-03-03T04:32:37.216Z,32.4
2018-03-03T04:33:28.184Z,32.3
2018-03-03T04:34:16.529Z,32.1
2018-03-03T04:35:08.504Z,32
2018-03-03T04:35:57.456Z,31.9
2018-03-03T04:36:47.429Z,31.8
2018-03-03T04:37:37.364Z,31.6
2018-03-03T04:38:26.746Z,31.6
2018-03-03T04:39:16.933Z,31.4
2018-03-03T04:40:07.469Z,31.3
2018-03-03T04:40:56.779Z,31.2
2018-03-03T04:41:48.183Z,31
2018-03-03T04:42:37.728Z,30.3
2018-03-03T04:43:28.413Z,30.7
2018-03-03T04:44:18.273Z,31.3
2018-03-03T04:45:08.690Z,31.8
2018-03-03T04:45:57.888Z,32.4
2018-03-03T04:46:48.146Z,33.1
2018-03-03T04:47:38.111Z,33.8
2018-03-03T04:48:28.409Z,33.5
2018-03-03T04:49:20.056Z,32.9
2018-03-03T04:50:08.159Z,32.6
2018-03-03T04:50:57.965Z,32.4
2018-03-03T04:51:49.113Z,32.2
2018-03-03T04:52:39.158Z,32
2018-03-03T04:53:30.041Z,31.9
2018-03-03T04:54:19.538Z,31.8
2018-03-03T04:55:09.841Z,31.6
2018-03-03T04:55:59.923Z,31.5
2018-03-03T04:56:48.792Z,31.4
2018-03-03T04:57:39.583Z,31
2018-03-03T04:58:28.684Z,30.4
2018-03-03T04:59:19.220Z,31
2018-03-03T05:00:07.824Z,31.6
2018-03-03T05:00:59.651Z,32.3
2018-03-03T05:01:48.527Z,32.9
2018-03-03T05:02:39.099Z,33.6
2018-03-03T05:03:28.911Z,33.8
2018-03-03T05:04:18.756Z,33.1
2018-03-03T05:05:09.340Z,32.7
2018-03-03T05:05:58.589Z,32.5
2018-03-03T05:06:50.197Z,32.3
2018-03-03T05:07:39.930Z,32.1
2018-03-03T05:08:29.526Z,32
2018-03-03T05:09:18.652Z,31.9
2018-03-03T05:10:10.043Z,31.8
2018-03-03T05:10:59.854Z,31.6
2018-03-03T05:11:49.172Z,31.5
2018-03-03T05:12:39.698Z,31.4
2018-03-03T05:13:30.389Z,30.8
2018-03-03T05:14:20.666Z,30.6
2018-03-03T05:15:09.720Z,31.2
2018-03-03T05:16:00.124Z,31.8
2018-03-03T05:16:48.864Z,32.4
2018-03-03T05:17:40.758Z,33
2018-03-03T05:18:29.414Z,33.8
2018-03-03T05:19:20.495Z,33.8
2018-03-03T05:20:11.024Z,33
2018-03-03T05:21:00.089Z,32.6
2018-03-03T05:21:50.046Z,32.4
2018-03-03T05:22:40.384Z,32.2
2018-03-03T05:23:31.189Z,32.1
2018-03-03T05:24:20.191Z,31.9
2018-03-03T05:25:10.846Z,31.8
2018-03-03T05:26:00.346Z,31.7
2018-03-03T05:26:50.876Z,31.6
2018-03-03T05:27:40.864Z,31.4
2018-03-03T05:28:31.698Z,31.3
2018-03-03T05:29:19.383Z,30.6
2018-03-03T05:30:11.451Z,30.5
2018-03-03T05:31:01.701Z,31.1
2018-03-03T05:31:51.175Z,31.7
2018-03-03T05:32:41.271Z,32.3
2018-03-03T05:33:31.626Z,32.9
2018-03-03T05:34:20.638Z,33.6
2018-03-03T05:35:11.358Z,33.6
2018-03-03T05:36:00.550Z,32.9
2018-03-03T05:36:51.650Z,32.6
2018-03-03T05:37:41.801Z,32.4
2018-03-03T05:38:31.848Z,32.2
2018-03-03T05:39:20.930Z,32
2018-03-03T05:40:12.173Z,31.9
2018-03-03T05:41:00.966Z,31.8
2018-03-03T05:41:52.808Z,31.6
2018-03-03T05:42:42.502Z,31.5
2018-03-03T05:43:31.619Z,31.4
2018-03-03T05:44:21.490Z,31.1
2018-03-03T05:45:12.288Z,30.3
2018-03-03T05:46:02.180Z,29.7
2018-03-03T05:46:52.415Z,29.3
2018-03-03T05:47:42.900Z,29
2018-03-03T05:48:32.934Z,28.7
2018-03-03T05:49:22.587Z,28.4
2018-03-03T05:50:12.777Z,29.4
2018-03-03T05:51:02.038Z,30.1
2018-03-03T05:51:51.704Z,30.9
2018-03-03T05:52:42.777Z,31.6
2018-03-03T05:53:32.219Z,32.3
2018-03-03T05:54:22.435Z,32.9
2018-03-03T05:55:13.057Z,33.6
2018-03-03T05:56:02.464Z,33.1
2018-03-03T05:56:52.428Z,32.4
2018-03-03T05:57:42.933Z,32.1
2018-03-03T05:58:32.732Z,31.8
2018-03-03T05:59:23.043Z,31.6
2018-03-03T06:00:13.006Z,31.5
2018-03-03T06:01:02.926Z,31.4
2018-03-03T06:01:53.108Z,31.3
2018-03-03T06:02:44.424Z,31.1
2018-03-03T06:03:33.973Z,31
2018-03-03T06:04:24.612Z,30.9
2018-03-03T06:05:14.654Z,30.4
2018-03-03T06:06:04.655Z,29.9
2018-03-03T06:06:55.019Z,30.6
2018-03-03T06:07:45.145Z,31.2
2018-03-03T06:08:34.253Z,31.9
2018-03-03T06:09:25.131Z,32.5
2018-03-03T06:10:14.340Z,33.1
2018-03-03T06:11:05.017Z,33.8
2018-03-03T06:11:55.091Z,33.1
2018-03-03T06:12:45.377Z,32.6
2018-03-03T06:14:15.273Z,32.3
2018-03-03T06:14:28.416Z,31.8
2018-03-03T06:15:19.077Z,31.8
2018-03-03T06:16:09.940Z,31.6
2018-03-03T06:16:59.724Z,31.4
2018-03-03T06:17:49.775Z,31.3
2018-03-03T06:18:39.297Z,31.1
2018-03-03T06:19:30.173Z,31
2018-03-03T06:20:19.967Z,30.9
2018-03-03T06:21:10.368Z,30.3
2018-03-03T06:21:59.536Z,29.5
2018-03-03T06:22:49.851Z,29.1
2018-03-03T06:23:40.145Z,28.8
2018-03-03T06:24:29.104Z,28.5
2018-03-03T06:25:19.866Z,28.1
2018-03-03T06:26:10.370Z,28.4
2018-03-03T06:27:00.121Z,29.3
2018-03-03T06:27:50.483Z,30
2018-03-03T06:28:40.007Z,30.8
2018-03-03T06:29:30.034Z,31.4
2018-03-03T06:30:20.351Z,32.1
2018-03-03T06:31:10.481Z,32.8
2018-03-03T06:32:00.464Z,33.2
2018-03-03T06:32:50.899Z,32.3
2018-03-03T06:33:40.889Z,31.9
2018-03-03T06:34:30.669Z,31.7
2018-03-03T06:35:20.986Z,31.5
2018-03-03T06:36:11.298Z,31.4
2018-03-03T06:37:00.780Z,31.3
2018-03-03T06:37:50.001Z,31.1
2018-03-03T06:38:41.168Z,31
2018-03-03T06:39:30.712Z,30.9
2018-03-03T06:40:21.029Z,30.8
2018-03-03T06:41:11.342Z,30.7
2018-03-03T06:42:01.438Z,29.8
2018-03-03T06:42:51.740Z,30.1
2018-03-03T06:43:41.276Z,30.8
2018-03-03T06:44:31.850Z,31.4
2018-03-03T06:45:21.901Z,32.1
2018-03-03T06:46:11.608Z,32.7
2018-03-03T06:47:01.491Z,33.4
2018-03-03T06:47:51.619Z,33.4
2018-03-03T06:48:42.163Z,32.8
2018-03-03T06:49:31.705Z,32.5
2018-03-03T06:50:22.005Z,32.3
2018-03-03T06:51:11.493Z,32.2
2018-03-03T06:52:01.872Z,32
2018-03-03T06:52:51.545Z,31.9
2018-03-03T06:53:42.156Z,31.8
2018-03-03T06:54:32.259Z,31.7
2018-03-03T06:55:22.577Z,31.6
2018-03-03T06:56:12.654Z,31.4
2018-03-03T06:57:02.455Z,31.3
2018-03-03T06:57:52.455Z,30.3
2018-03-03T06:58:42.827Z,29.7
2018-03-03T06:59:32.349Z,29.2
2018-03-03T07:00:22.607Z,28.9
2018-03-03T07:01:11.534Z,28.6
2018-03-03T07:02:00.828Z,28.4
2018-03-03T07:02:50.453Z,29.4
2018-03-03T07:03:41.330Z,30.3
2018-03-03T07:04:31.589Z,31
2018-03-03T07:05:21.638Z,31.8
2018-03-03T07:06:10.816Z,32.5
2018-03-03T07:07:01.088Z,33.2
2018-03-03T07:07:51.767Z,33.6
2018-03-03T07:08:41.772Z,32.8
2018-03-03T07:09:31.437Z,32.4
2018-03-03T07:10:22.266Z,32.1
2018-03-03T07:11:11.002Z,31.9
2018-03-03T07:12:02.500Z,31.8
2018-03-03T07:12:52.793Z,31.7
2018-03-03T07:13:42.231Z,31.6
2018-03-03T07:14:33.089Z,31.4
2018-03-03T07:15:22.303Z,31.3
2018-03-03T07:16:12.509Z,31.2
2018-03-03T07:17:01.800Z,31.1
2018-03-03T07:17:52.253Z,30.8
2018-03-03T07:18:42.072Z,30.1
2018-03-03T07:19:32.830Z,30.7
2018-03-03T07:20:22.182Z,31.3
2018-03-03T07:21:12.770Z,31.9
2018-03-03T07:22:01.660Z,32.7
2018-03-03T07:22:52.348Z,33.3
2018-03-03T07:23:42.593Z,33.9
2018-03-03T07:24:32.606Z,33.2
2018-03-03T07:25:22.336Z,32.8
2018-03-03T07:26:12.732Z,32.6
2018-03-03T07:27:03.202Z,32.4
2018-03-03T07:27:53.356Z,32.2
2018-03-03T07:28:42.206Z,32.1
2018-03-03T07:29:32.481Z,31.9
2018-03-03T07:30:23.688Z,31.8
2018-03-03T07:31:13.521Z,31.6
2018-03-03T07:32:02.786Z,31.5
2018-03-03T07:32:53.262Z,31.3
2018-03-03T07:33:43.593Z,31.3
2018-03-03T07:34:32.811Z,31.1
2018-03-03T07:35:23.525Z,30.6
2018-03-03T07:36:12.608Z,30.1
2018-03-03T07:37:03.438Z,30.4
2018-03-03T07:37:52.588Z,30.8
2018-03-03T07:38:43.440Z,31.3
2018-03-03T07:39:33.738Z,31.9
2018-03-03T07:40:24.411Z,32.5
2018-03-03T07:41:13.235Z,33.1
2018-03-03T07:42:04.087Z,33.8
2018-03-03T07:42:54.652Z,33.9
2018-03-03T07:43:44.066Z,32.9
2018-03-03T07:44:33.943Z,32.4
2018-03-03T07:45:23.794Z,32.1
2018-03-03T07:46:13.757Z,31.9
2018-03-03T07:47:02.765Z,31.7
2018-03-03T07:47:54.202Z,31.6
2018-03-03T07:48:43.326Z,31.4
2018-03-03T07:49:35.134Z,31.3
2018-03-03T07:50:24.708Z,31.2
2018-03-03T07:51:14.553Z,31
2018-03-03T07:52:04.282Z,30.9
2018-03-03T07:52:54.693Z,30.8
2018-03-03T07:53:44.629Z,29.9
2018-03-03T07:54:35.161Z,30.3
2018-03-03T07:55:24.984Z,31
2018-03-03T07:56:15.146Z,31.7
2018-03-03T07:57:05.559Z,32.4
2018-03-03T07:57:55.141Z,33.1
2018-03-03T07:58:45.486Z,33.8
2018-03-03T07:59:34.526Z,33.5
2018-03-03T08:00:24.830Z,33
2018-03-03T08:01:16.053Z,32.7
2018-03-03T08:02:05.802Z,32.4
2018-03-03T08:02:55.389Z,32.3
2018-03-03T08:03:45.666Z,32.1
2018-03-03T08:04:35.117Z,32
2018-03-03T08:05:27.053Z,31.9
2018-03-03T08:06:15.383Z,31.7
2018-03-03T08:07:05.806Z,31.6
2018-03-03T08:07:55.818Z,31.4
2018-03-03T08:08:46.829Z,31.3
2018-03-03T08:09:36.085Z,31.2
2018-03-03T08:10:26.300Z,31.1
2018-03-03T08:11:15.620Z,30.9
2018-03-03T08:12:06.668Z,30.2
2018-03-03T08:12:57.525Z,30.4
2018-03-03T08:13:46.464Z,31.1
2018-03-03T08:14:37.100Z,31.8
2018-03-03T08:15:25.790Z,32.4
2018-03-03T08:16:17.029Z,33.1
2018-03-03T08:17:06.407Z,33.8
2018-03-03T08:17:56.213Z,33.8
2018-03-03T08:18:45.965Z,33.1
2018-03-03T08:19:36.871Z,32.8
2018-03-03T08:20:27.273Z,32.6
2018-03-03T08:21:16.382Z,32.4
2018-03-03T08:22:06.932Z,32.3
2018-03-03T08:22:55.918Z,32.1
2018-03-03T08:23:46.982Z,31.9
2018-03-03T08:24:37.035Z,31.8
2018-03-03T08:25:27.129Z,31.6
2018-03-03T08:26:17.905Z,31.5
2018-03-03T08:27:05.910Z,31.4
2018-03-03T08:27:57.711Z,31.2
2018-03-03T08:28:47.714Z,31.1
2018-03-03T08:29:37.406Z,30.9
2018-03-03T08:30:27.549Z,30.8
2018-03-03T08:31:17.809Z,30.7
2018-03-03T08:32:08.034Z,30.6
2018-03-03T08:32:57.410Z,30.4
2018-03-03T08:33:47.344Z,30.3
2018-03-03T08:34:38.448Z,30.3
2018-03-03T08:35:27.018Z,30.1
2018-03-03T08:36:17.594Z,30.1
2018-03-03T08:37:08.254Z,29.9
2018-03-03T08:37:58.631Z,29.8
2018-03-03T08:38:48.504Z,29.7
2018-03-03T08:39:38.112Z,29.6
2018-03-03T08:40:28.636Z,29.4
2018-03-03T08:41:19.726Z,29.3
2018-03-03T08:42:09.172Z,29.2
2018-03-03T08:42:59.856Z,29.1
2018-03-03T08:43:49.859Z,29
2018-03-03T08:44:38.773Z,28.9
2018-03-03T08:45:29.472Z,28.3
2018-03-03T08:46:19.450Z,28.8
2018-03-03T08:47:09.784Z,29.6
2018-03-03T08:47:59.626Z,30.4
2018-03-03T08:48:49.944Z,31.1
2018-03-03T08:49:38.618Z,31.9
2018-03-03T08:50:27.771Z,32.6
2018-03-03T08:51:18.329Z,33.3
2018-03-03T08:52:08.389Z,34.1
2018-03-03T08:52:58.971Z,33.4
2018-03-03T08:53:48.087Z,33
2018-03-03T08:54:38.453Z,32.8
2018-03-03T08:55:29.390Z,32.6
2018-03-03T08:56:19.270Z,32.4
2018-03-03T08:57:08.718Z,32.3
2018-03-03T08:57:59.043Z,32.1
2018-03-03T08:58:49.741Z,31.9
2018-03-03T08:59:39.378Z,31.8
2018-03-03T09:00:30.003Z,31.6
2018-03-03T09:01:19.903Z,31.5
2018-03-03T09:02:08.785Z,31.4
2018-03-03T09:02:59.808Z,31.3
2018-03-03T09:03:49.157Z,31.1
2018-03-03T09:04:39.685Z,31
2018-03-03T09:05:29.473Z,30.8
2018-03-03T09:06:21.372Z,30.8
2018-03-03T09:07:09.752Z,30.6
2018-03-03T09:07:59.775Z,30.4
2018-03-03T09:08:49.374Z,30.3
2018-03-03T09:09:40.138Z,30.3
2018-03-03T09:10:30.084Z,30.1
2018-03-03T09:11:20.365Z,29.9
2018-03-03T09:12:09.800Z,29.9
2018-03-03T09:13:01.067Z,29.7
2018-03-03T09:13:49.476Z,29.6
2018-03-03T09:14:39.740Z,29.5
2018-03-03T09:15:31.681Z,29.4
2018-03-03T09:16:20.795Z,29.3
2018-03-03T09:17:09.552Z,29.1
2018-03-03T09:17:59.589Z,29.1
2018-03-03T09:18:50.744Z,28.9
2018-03-03T09:19:40.662Z,28.6
2018-03-03T09:20:31.324Z,29.3
2018-03-03T09:21:20.849Z,30.1
2018-03-03T09:22:10.671Z,30.9
2018-03-03T09:23:01.220Z,31.6
2018-03-03T09:23:51.412Z,32.4
2018-03-03T09:24:42.204Z,33.2
2018-03-03T09:25:30.192Z,34
2018-03-03T09:26:19.801Z,33.3
2018-03-03T09:27:10.998Z,32.6
2018-03-03T09:28:00.995Z,32.3
2018-03-03T09:28:50.983Z,32.1
2018-03-03T09:29:41.217Z,31.9
2018-03-03T09:30:32.099Z,31.8
2018-03-03T09:31:21.139Z,31.6
2018-03-03T09:32:11.919Z,31.5
2018-03-03T09:33:00.436Z,31.4
2018-03-03T09:33:51.745Z,31.3
2018-03-03T09:34:41.602Z,31.1
2018-03-03T09:35:31.295Z,30.9
2018-03-03T09:36:22.283Z,30.8
2018-03-03T09:37:11.998Z,30.7
2018-03-03T09:38:02.539Z,30.6
2018-03-03T09:38:51.334Z,30.4
2018-03-03T09:39:42.290Z,30.3
2018-03-03T09:40:33.045Z,30.1
2018-03-03T09:41:22.420Z,30.1
2018-03-03T09:42:12.248Z,29.9
2018-03-03T09:43:02.120Z,29.8
2018-03-03T09:43:52.413Z,29.7
2018-03-03T09:44:42.043Z,29.6
2018-03-03T09:45:32.558Z,29.4
2018-03-03T09:46:23.030Z,29.3
2018-03-03T09:47:12.043Z,29.3
2018-03-03T09:48:01.869Z,29.1
2018-03-03T09:48:52.632Z,29
2018-03-03T09:49:42.165Z,28.9
2018-03-03T09:50:31.653Z,28.4
2018-03-03T09:51:23.668Z,28.7
2018-03-03T09:52:12.917Z,29.6
2018-03-03T09:53:02.366Z,30.4
2018-03-03T09:53:53.327Z,31.2
2018-03-03T09:54:42.899Z,32.1
2018-03-03T09:55:33.918Z,32.8
2018-03-03T09:56:22.725Z,33.7
2018-03-03T09:57:13.137Z,33.8
2018-03-03T09:58:04.124Z,33
2018-03-03T09:58:54.546Z,32.7
2018-03-03T09:59:44.167Z,32.4
2018-03-03T10:00:33.544Z,32.3
2018-03-03T10:01:23.910Z,32.2
2018-03-03T10:02:14.301Z,32
2018-03-03T10:03:03.449Z,31.8
2018-03-03T10:03:53.497Z,31.7
2018-03-03T10:04:43.795Z,31.6
2018-03-03T10:05:33.673Z,31.4
2018-03-03T10:06:24.506Z,31.3
2018-03-03T10:07:13.905Z,31.1
2018-03-03T10:08:04.372Z,31
2018-03-03T10:08:53.152Z,30.8
2018-03-03T10:09:44.511Z,30.7
2018-03-03T10:10:34.525Z,30.6
2018-03-03T10:11:24.831Z,30.4
2018-03-03T10:12:14.432Z,30.3
2018-03-03T10:13:04.737Z,30.2
2018-03-03T10:13:53.576Z,30.1
2018-03-03T10:14:44.326Z,29.9
2018-03-03T10:15:34.954Z,29.8
2018-03-03T10:16:24.124Z,29.7
2018-03-03T10:17:14.738Z,29.6
2018-03-03T10:18:03.859Z,29.5
2018-03-03T10:18:54.407Z,29.4
2018-03-03T10:19:45.412Z,29.3
2018-03-03T10:20:34.339Z,29.1
2018-03-03T10:21:25.072Z,29
2018-03-03T10:22:14.731Z,28.5
2018-03-03T10:23:04.609Z,28.7
2018-03-03T10:23:54.526Z,29.6
2018-03-03T10:24:45.674Z,30.3
2018-03-03T10:25:34.783Z,31.1
2018-03-03T10:26:27.382Z,31.9
2018-03-03T10:27:16.106Z,32.7
2018-03-03T10:28:05.803Z,33.4
2018-03-03T10:28:54.886Z,34.2
2018-03-03T10:29:45.585Z,34.1
2018-03-03T10:30:36.520Z,33.9
2018-03-03T10:31:25.670Z,33.9
2018-03-03T10:32:15.828Z,34.6
2018-03-03T10:33:07.553Z,34.9
2018-03-03T10:33:55.339Z,34.8
2018-03-03T10:34:45.016Z,34.7
2018-03-03T10:35:36.060Z,34.6
2018-03-03T10:36:26.560Z,34.6
2018-03-03T10:37:16.386Z,34.6
2018-03-03T10:38:05.465Z,34.6
2018-03-03T10:38:56.155Z,34.7
2018-03-03T10:39:45.525Z,34.8
2018-03-03T10:40:35.631Z,34.8
2018-03-03T10:41:25.590Z,34.9
2018-03-03T10:42:16.109Z,35
2018-03-03T10:43:07.147Z,35.1
2018-03-03T10:43:56.832Z,35.1
2018-03-03T10:44:46.396Z,35.2
2018-03-03T10:45:35.895Z,35.3
2018-03-03T10:46:26.849Z,35.4
2018-03-03T10:47:17.161Z,35.4
2018-03-03T10:48:06.473Z,35.6
2018-03-03T10:48:56.884Z,35.6
2018-03-03T10:49:48.319Z,35.7
2018-03-03T10:50:36.956Z,35.8
2018-03-03T10:51:26.499Z,35.9
2018-03-03T10:52:16.724Z,35.9
2018-03-03T10:53:07.804Z,36
2018-03-03T10:53:58.448Z,36.1
2018-03-03T10:54:47.071Z,36.2
2018-03-03T10:55:38.489Z,36.3
2018-03-03T10:56:28.252Z,36.3
2018-03-03T10:57:17.178Z,36.1
2018-03-03T10:58:07.375Z,35
2018-03-03T10:58:56.706Z,34.6
2018-03-03T10:59:48.009Z,34.3
2018-03-03T11:00:36.176Z,34.1
2018-03-03T11:01:27.609Z,33.8
2018-03-03T11:02:15.742Z,33.7
2018-03-03T11:03:08.051Z,33.5
2018-03-03T11:03:58.327Z,33.4
2018-03-03T11:04:47.506Z,33.3
2018-03-03T11:05:37.086Z,33.2
2018-03-03T11:06:28.511Z,33.1
2018-03-03T11:07:18.151Z,33
2018-03-03T11:08:09.068Z,32.9
2018-03-03T11:08:57.140Z,32.8
2018-03-03T11:09:49.176Z,32.7